createdAt,value
2022-12-19T17:35:33.576Z,500.00
2022-12-19T17:36:37.421Z,500.00
2022-12-19T17:37:33.411Z,500.00
2022-12-19T17:38:33.320Z,500.00
2022-12-19T17:39:33.226Z,500.00
2022-12-19T17:40:33.121Z,500.00
2022-12-19T17:41:33.310Z,500.00
2022-12-19T17:42:37.303Z,434.00
2022-12-19T21:23:11.956Z,500.00
2022-12-19T21:29:11.578Z,489.00
2022-12-19T21:35:14.618Z,694.00
2022-12-19T21:36:11.031Z,697.00
2022-12-19T21:39:10.870Z,590.00
2022-12-19T21:41:11.557Z,589.00
2022-12-19T21:46:10.293Z,552.00
2022-12-19T21:49:09.974Z,560.00
2022-12-19T21:50:09.874Z,563.00
2022-12-19T21:51:09.774Z,563.00
2022-12-19T21:52:09.675Z,560.00
2022-12-19T21:53:09.622Z,566.00
2022-12-19T21:54:09.490Z,566.00
2022-12-19T21:55:10.419Z,567.00
2022-12-19T21:56:09.327Z,564.00
2022-12-19T21:57:09.228Z,569.00
2022-12-19T21:58:09.124Z,566.00
2022-12-19T21:59:08.917Z,571.00
2022-12-19T22:00:08.917Z,571.00
2022-12-19T22:01:08.967Z,576.00
2022-12-19T22:02:09.116Z,574.00
2022-12-19T22:03:16.004Z,577.00
2022-12-19T22:07:09.068Z,585.00
2022-12-19T22:08:08.291Z,593.00
2022-12-19T22:09:08.179Z,590.00
2022-12-19T22:11:08.173Z,598.00
2022-12-19T22:12:08.279Z,600.00
2022-12-19T22:13:07.569Z,605.00
2022-12-19T22:14:07.582Z,604.00
2022-12-19T22:15:07.498Z,603.00
2022-12-19T22:16:07.417Z,607.00
2022-12-19T22:17:07.487Z,606.00
2022-12-19T22:18:07.590Z,616.00
2022-12-19T22:19:07.609Z,614.00
2022-12-19T22:20:07.142Z,620.00
2022-12-19T22:21:07.111Z,620.00
2022-12-19T22:22:07.125Z,621.00
2022-12-19T22:23:12.791Z,629.00
2022-12-19T22:25:06.729Z,629.00
2022-12-19T22:27:07.158Z,631.00
2022-12-19T22:28:06.450Z,639.00
2022-12-19T22:30:10.932Z,643.00
2022-12-19T22:31:06.335Z,644.00
2022-12-19T22:32:07.187Z,644.00
2022-12-19T22:34:06.237Z,648.00
2022-12-19T22:35:06.082Z,654.00
2022-12-19T22:36:06.111Z,656.00
2022-12-19T22:37:06.160Z,651.00
2022-12-19T22:38:06.137Z,659.00
2022-12-19T22:39:05.620Z,666.00
2022-12-19T22:40:05.499Z,666.00
2022-12-19T22:41:05.401Z,672.00
2022-12-19T22:42:05.326Z,671.00
2022-12-19T22:43:05.250Z,670.00
2022-12-19T22:44:05.241Z,687.00
2022-12-19T22:45:05.150Z,680.00
2022-12-19T22:46:05.043Z,682.00
2022-12-19T22:47:04.933Z,690.00
2022-12-19T22:48:04.848Z,700.00
2022-12-19T22:49:05.811Z,709.00
2022-12-19T22:50:04.662Z,706.00
2022-12-19T22:52:06.198Z,722.00
2022-12-19T22:54:05.181Z,717.00
2022-12-19T22:55:05.211Z,735.00
2022-12-19T22:56:04.201Z,734.00
2022-12-19T22:57:04.103Z,743.00
2022-12-19T22:58:03.861Z,742.00
2022-12-19T22:59:03.779Z,747.00
2022-12-19T23:00:03.799Z,762.00
2022-12-19T23:01:04.202Z,764.00
2022-12-19T23:02:03.923Z,758.00
2022-12-19T23:03:03.928Z,765.00
2022-12-19T23:04:03.729Z,777.00
2022-12-19T23:05:03.430Z,781.00
2022-12-19T23:06:03.341Z,786.00
2022-12-19T23:09:03.244Z,784.00
2022-12-19T23:35:04.227Z,879.00
2022-12-19T23:45:01.666Z,908.00
2022-12-19T23:46:01.374Z,913.00
2022-12-19T23:47:03.351Z,916.00
2022-12-19T23:50:59.310Z,921.00
2022-12-19T23:51:59.256Z,923.00
2022-12-19T23:52:59.264Z,914.00
2022-12-19T23:53:59.145Z,923.00
2022-12-19T23:58:58.676Z,940.00
2022-12-19T23:59:58.574Z,940.00
